Time;durP1;ratioP1;P1;durP2;ratioP2;P2;SDS_P1;SDS_P2;PMS_P1;PMS_P2;Temp;Humidity;BMP_temperature;BMP_pressure;BME280_temperature;BME280_humidity;BME280_pressure;Samples;Min_cycle;Max_cycle;Signal;HPM_P1;HPM_P2
2022/02/03 00:01:20;;;;;;;168.13;51.03;;;7.80;99.90;;;;;;6242054;22;20022;-79
2022/02/03 00:03:52;;;;;;;155.85;49.78;;;7.80;99.90;;;;;;6243688;22;20099;-81
2022/02/03 00:06:30;;;;;;;180.68;50.72;;;7.90;99.90;;;;;;6243838;22;20016;-79
2022/02/03 00:16:15;;;;;;;138.38;46.05;;;7.90;99.90;;;;;;6226251;22;20464;-80
2022/02/03 00:28:02;;;;;;;108.15;36.05;;;8.20;99.90;;;;;;6249354;22;20019;-79
2022/02/03 00:31:30;;;;;;;134.73;37.92;;;8.20;99.90;;;;;;6248979;22;20542;-80
2022/02/03 00:49:26;;;;;;;117.63;37.00;;;8.20;99.90;;;;;;6252475;22;20022;-79
2022/02/03 00:52:00;;;;;;;99.50;35.33;;;8.30;99.90;;;;;;6248780;22;20015;-80
2022/02/03 00:54:30;;;;;;;115.53;36.70;;;8.30;99.90;;;;;;6248402;22;20673;-79
2022/02/03 00:57:05;;;;;;;139.65;40.42;;;8.30;99.90;;;;;;6249555;22;20015;-78
2022/02/03 00:59:48;;;;;;;109.60;36.42;;;8.30;99.90;;;;;;6248611;22;20447;-78
2022/02/03 01:02:17;;;;;;;127.78;36.83;;;8.30;99.90;;;;;;6248384;22;20481;-79
2022/02/03 01:04:43;;;;;;;116.63;35.40;;;8.30;99.90;;;;;;6249219;22;20015;-79
2022/02/03 01:07:12;;;;;;;107.38;35.05;;;8.30;99.90;;;;;;6274804;22;20019;-80
2022/02/03 01:09:47;;;;;;;122.30;39.70;;;8.40;99.90;;;;;;6251571;22;20016;-79
2022/02/03 01:12:29;;;;;;;142.63;42.45;;;8.40;99.90;;;;;;6227381;22;20029;-78
2022/02/03 01:21:06;;;;;;;141.57;43.20;;;8.40;99.90;;;;;;6249523;22;20385;-79
2022/02/03 01:45:04;;;;;;;182.15;50.67;;;8.50;99.90;;;;;;6190112;22;20078;-78
2022/02/03 01:52:43;;;;;;;147.93;48.67;;;8.50;99.90;;;;;;6268055;22;20016;-78
2022/02/03 01:55:11;;;;;;;165.32;51.90;;;8.30;99.90;;;;;;6268247;22;20016;-77
2022/02/03 01:57:41;;;;;;;156.63;50.83;;;8.40;99.90;;;;;;6242188;22;20015;-78
2022/02/03 02:00:11;;;;;;;162.18;49.22;;;8.40;99.90;;;;;;6268205;22;20063;-78
2022/02/03 02:02:42;;;;;;;145.35;49.50;;;8.40;99.90;;;;;;6264834;22;20445;-78
2022/02/03 02:05:40;;;;;;;168.32;50.72;;;8.40;99.90;;;;;;6240407;22;20019;-78
2022/02/03 02:08:25;;;;;;;152.27;51.08;;;8.40;99.90;;;;;;6253894;22;20030;-78
2022/02/03 02:11:39;;;;;;;131.18;47.28;;;8.40;99.90;;;;;;6243431;22;20421;-79
2022/02/03 02:17:31;;;;;;;132.52;47.28;;;8.40;99.90;;;;;;6266995;22;20019;-78
2022/02/03 02:39:12;;;;;;;116.65;49.35;;;8.50;99.90;;;;;;6266059;22;20050;-77
2022/02/03 02:45:02;;;;;;;123.78;52.65;;;8.40;99.90;;;;;;6265936;22;20024;-76
2022/02/03 02:47:49;;;;;;;127.13;53.17;;;8.40;99.90;;;;;;6240865;22;20023;-79
2022/02/03 02:51:10;;;;;;;125.10;52.08;;;8.50;99.90;;;;;;6239496;22;20027;-76
2022/02/03 02:56:17;;;;;;;135.43;55.03;;;8.40;99.90;;;;;;6264696;22;20054;-78
2022/02/03 02:59:04;;;;;;;114.40;51.95;;;8.40;99.90;;;;;;6239273;22;20085;-78
2022/02/03 03:37:25;;;;;;;106.65;56.13;;;8.30;99.90;;;;;;6270283;22;20083;-79
2022/02/03 03:39:57;;;;;;;103.32;53.72;;;8.40;99.90;;;;;;6269816;22;20026;-79
2022/02/03 03:42:32;;;;;;;100.90;54.08;;;8.40;99.90;;;;;;6243671;22;20015;-78
2022/02/03 03:45:01;;;;;;;97.40;53.03;;;8.40;99.90;;;;;;6245826;22;20057;-78
2022/02/03 03:47:32;;;;;;;91.30;51.60;;;8.40;99.90;;;;;;6248346;22;20065;-79
2022/02/03 03:50:15;;;;;;;90.70;52.50;;;8.40;99.90;;;;;;6273146;22;20050;-78
2022/02/03 03:53:13;;;;;;;88.90;52.10;;;8.40;99.90;;;;;;6247307;22;20439;-78
2022/02/03 03:55:51;;;;;;;88.95;50.55;;;8.40;99.90;;;;;;6247495;22;20026;-78
2022/02/03 05:02:03;;;;;;;93.07;57.30;;;8.30;99.90;;;;;;6273517;22;20510;-87
2022/02/03 05:05:24;;;;;;;90.18;57.22;;;8.30;99.90;;;;;;6251169;22;20331;-88
2022/02/03 05:13:44;;;;;;;98.00;60.58;;;8.40;99.90;;;;;;6274792;22;20023;-89
2022/02/03 05:42:00;;;;;;;119.28;66.30;;;8.30;99.90;;;;;;6275264;22;20019;-89
2022/02/03 05:44:57;;;;;;;129.48;67.57;;;8.30;99.90;;;;;;6276252;22;20084;-89
2022/02/03 05:54:38;;;;;;;122.35;64.50;;;8.30;99.90;;;;;;6254665;22;20102;-88
2022/02/03 06:01:23;;;;;;;125.32;65.07;;;8.30;99.90;;;;;;6276665;22;20024;-89
2022/02/03 06:06:52;;;;;;;120.05;68.50;;;8.30;99.90;;;;;;6274986;22;20023;-86
2022/02/03 06:14:41;;;;;;;131.25;67.95;;;8.30;99.90;;;;;;6276379;22;20023;-89
2022/02/03 06:22:47;;;;;;;112.03;62.92;;;8.30;99.90;;;;;;6253440;22;20101;-81
2022/02/03 06:27:45;;;;;;;106.85;59.72;;;8.30;99.90;;;;;;6249808;22;20019;-81
2022/02/03 06:30:17;;;;;;;108.95;61.33;;;8.30;99.90;;;;;;6249577;22;20019;-81
2022/02/03 06:32:45;;;;;;;102.90;57.45;;;8.30;99.90;;;;;;6243495;22;20148;-81
2022/02/03 06:35:13;;;;;;;105.20;60.60;;;8.30;99.90;;;;;;6223085;22;20050;-81
2022/02/03 06:37:39;;;;;;;100.00;56.08;;;8.20;99.90;;;;;;6249002;22;20051;-80
2022/02/03 06:40:09;;;;;;;102.55;58.88;;;8.30;99.90;;;;;;6245554;22;20038;-81
2022/02/03 06:42:38;;;;;;;92.25;56.10;;;8.30;99.90;;;;;;6267539;22;20022;-81
2022/02/03 06:45:36;;;;;;;95.53;56.15;;;8.30;99.90;;;;;;6247671;22;20042;-81
2022/02/03 06:48:08;;;;;;;90.30;56.88;;;8.30;99.90;;;;;;6273108;22;20037;-80
2022/02/03 06:50:41;;;;;;;90.15;53.70;;;8.20;99.90;;;;;;6244183;22;20030;-82
2022/02/03 06:53:31;;;;;;;86.10;52.00;;;8.20;99.90;;;;;;6219178;22;20099;-80
2022/02/03 06:56:08;;;;;;;86.93;54.50;;;8.20;99.90;;;;;;6247700;22;20034;-81
2022/02/03 07:04:14;;;;;;;78.53;48.75;;;8.20;99.90;;;;;;6119413;23;20018;-81
2022/02/03 07:06:40;;;;;;;71.53;47.92;;;8.20;99.90;;;;;;6231825;22;20278;-80
2022/02/03 07:09:08;;;;;;;75.97;49.65;;;8.20;99.90;;;;;;6268598;22;20065;-81
2022/02/03 07:11:36;;;;;;;68.63;45.50;;;8.20;99.90;;;;;;6246296;22;20026;-80
2022/02/03 07:14:06;;;;;;;65.65;43.60;;;8.20;99.90;;;;;;6222648;22;20435;-80
2022/02/03 07:16:35;;;;;;;;;;;8.20;99.90;;;;;;6221152;22;20046;-81
2022/02/03 07:19:01;;;;;;;61.50;43.17;;;8.10;99.90;;;;;;6248780;22;19926;-82
2022/02/03 07:21:27;;;;;;;54.60;40.08;;;8.20;99.90;;;;;;6221750;22;20169;-82
2022/02/03 07:23:56;;;;;;;59.17;40.78;;;8.10;99.90;;;;;;6242676;22;20020;-81
2022/02/03 07:26:25;;;;;;;55.88;39.17;;;8.20;99.90;;;;;;6218142;22;20046;-82
2022/02/03 07:28:51;;;;;;;52.13;38.13;;;8.10;99.90;;;;;;6217986;22;20023;-81
2022/02/03 07:31:17;;;;;;;57.45;37.95;;;8.10;99.90;;;;;;6240726;22;20552;-81
2022/02/03 07:33:42;;;;;;;56.47;38.03;;;8.10;99.90;;;;;;6212051;22;20023;-81
2022/02/03 07:36:09;;;;;;;56.72;38.70;;;8.10;99.90;;;;;;6210102;22;20063;-81
2022/02/03 07:38:37;;;;;;;48.70;35.85;;;8.10;99.90;;;;;;6212399;22;20443;-83
2022/02/03 07:41:03;;;;;;;49.30;36.08;;;8.10;99.90;;;;;;6238553;22;20055;-81
2022/02/03 07:43:29;;;;;;;48.33;34.28;;;8.10;99.90;;;;;;6209886;22;20020;-82
2022/02/03 07:45:57;;;;;;;48.33;34.00;;;8.10;99.90;;;;;;6214467;22;20026;-82
2022/02/03 07:48:23;;;;;;;46.95;34.50;;;8.10;99.90;;;;;;6215219;22;20026;-82
2022/02/03 07:50:49;;;;;;;48.55;33.25;;;8.10;99.90;;;;;;6240017;22;20087;-82
2022/02/03 07:53:15;;;;;;;46.47;33.20;;;8.10;99.90;;;;;;6237318;22;20054;-81
2022/02/03 07:55:41;;;;;;;47.33;32.42;;;8.10;99.90;;;;;;6239687;22;20094;-82
2022/02/03 07:58:10;;;;;;;47.40;32.95;;;8.10;99.90;;;;;;6240438;22;20016;-81
2022/02/03 08:00:36;;;;;;;42.50;30.20;;;8.10;99.90;;;;;;6239609;22;20051;-82
2022/02/03 08:03:06;;;;;;;41.25;30.42;;;8.10;99.90;;;;;;6215395;22;20020;-81
2022/02/03 08:05:33;;;;;;;41.63;30.20;;;8.10;99.90;;;;;;6212486;22;20489;-82
2022/02/03 08:08:06;;;;;;;42.70;30.13;;;8.10;99.90;;;;;;6237489;22;20031;-82
2022/02/03 08:13:01;;;;;;;39.53;29.48;;;8.10;99.90;;;;;;6240194;22;20035;-82
2022/02/03 08:15:32;;;;;;;36.13;26.20;;;8.00;99.90;;;;;;6214149;22;20245;-81
2022/02/03 08:18:03;;;;;;;;;;;8.00;99.90;;;;;;6216546;22;20020;-82
2022/02/03 08:20:30;;;;;;;35.25;24.88;;;8.00;99.90;;;;;;6264550;22;19958;-81
2022/02/03 08:23:57;;;;;;;36.83;24.00;;;8.10;99.90;;;;;;6265664;22;20343;-82
2022/02/03 08:26:07;;;;;;;34.65;24.50;;;8.00;99.90;;;;;;6227701;22;20103;-82
2022/02/03 08:29:18;;;;;;;34.13;23.70;;;8.00;99.90;;;;;;6245293;22;20031;-82
2022/02/03 08:31:39;;;;;;;30.15;21.77;;;8.10;99.90;;;;;;6233434;22;20020;-83
2022/02/03 08:34:05;;;;;;;29.58;19.48;;;8.10;99.90;;;;;;6241229;22;20073;-82
2022/02/03 08:36:36;;;;;;;30.33;19.83;;;8.10;99.90;;;;;;6239711;22;20020;-82
2022/02/03 08:39:06;;;;;;;;;;;8.10;99.90;;;;;;6265676;22;20053;-83
2022/02/03 08:41:32;;;;;;;24.45;18.80;;;8.10;99.90;;;;;;6214876;22;19915;-82
2022/02/03 08:43:58;;;;;;;30.60;18.20;;;8.00;99.90;;;;;;6214486;22;20023;-83
2022/02/03 08:46:26;;;;;;;25.55;17.05;;;8.10;99.90;;;;;;6214820;22;20051;-78
2022/02/03 08:48:57;;;;;;;27.23;17.10;;;8.10;99.90;;;;;;6240769;22;20016;-83
2022/02/03 08:51:23;;;;;;;24.90;17.17;;;8.10;99.90;;;;;;6216957;22;20410;-89
2022/02/03 08:53:55;;;;;;;24.98;18.27;;;8.10;99.90;;;;;;6241241;22;20043;-91
2022/02/03 09:34:58;;;;;;;29.23;21.40;;;8.20;99.90;;;;;;6270270;22;20028;-88
2022/02/03 09:51:03;;;;;;;28.67;23.45;;;8.10;99.90;;;;;;6270516;22;20019;-89
2022/02/03 09:58:18;;;;;;;31.00;25.02;;;8.10;99.90;;;;;;6244109;22;20027;-88
2022/02/03 10:03:32;;;;;;;27.67;24.50;;;8.10;99.90;;;;;;6267049;22;20027;-89
2022/02/03 10:06:05;;;;;;;32.38;26.25;;;8.10;99.90;;;;;;6267614;22;20023;-89
2022/02/03 10:08:33;;;;;;;30.77;26.35;;;8.10;99.90;;;;;;6240962;22;20027;-90
2022/02/03 10:11:13;;;;;;;29.73;26.35;;;8.10;99.90;;;;;;6216498;22;20023;-89
2022/02/03 10:13:51;;;;;;;29.40;25.92;;;8.10;99.90;;;;;;6241622;22;20081;-89
2022/02/03 10:16:23;;;;;;;28.65;25.25;;;8.10;99.90;;;;;;6267303;22;20026;-90
2022/02/03 10:19:03;;;;;;;32.53;27.30;;;8.10;99.90;;;;;;6244562;22;20456;-88
2022/02/03 10:21:29;;;;;;;29.52;26.40;;;8.10;99.90;;;;;;6243769;22;20023;-89
2022/02/03 10:24:01;;;;;;;29.92;25.38;;;8.10;99.90;;;;;;6239991;22;20016;-89
2022/02/03 10:26:47;;;;;;;32.25;25.95;;;8.10;99.90;;;;;;6268965;22;20082;-88
2022/02/03 10:29:28;;;;;;;32.50;24.77;;;8.10;99.90;;;;;;6242097;22;20368;-89
2022/02/03 10:31:54;;;;;;;27.65;24.10;;;8.10;99.90;;;;;;6269861;22;20016;-89
2022/02/03 10:34:29;;;;;;;31.80;24.92;;;8.10;99.90;;;;;;6219495;22;20020;-88
2022/02/03 10:55:36;;;;;;;25.20;22.35;;;8.00;99.90;;;;;;6242454;22;20023;-83
2022/02/03 11:00:57;;;;;;;26.67;22.55;;;8.00;99.90;;;;;;6268874;22;20059;-82
2022/02/03 11:06:08;;;;;;;26.80;24.10;;;8.10;99.90;;;;;;6239018;22;20561;-83
2022/02/03 11:08:50;;;;;;;26.88;23.30;;;8.10;99.90;;;;;;6241912;22;20024;-83
2022/02/03 11:11:22;;;;;;;25.38;22.77;;;8.00;99.90;;;;;;6245625;22;20024;-83
2022/02/03 11:13:50;;;;;;;31.63;24.48;;;8.00;99.90;;;;;;6242342;22;20042;-82
2022/02/03 11:16:18;;;;;;;30.38;25.40;;;8.00;99.90;;;;;;6242672;22;20141;-82
2022/02/03 11:18:47;;;;;;;27.75;23.45;;;8.00;99.90;;;;;;6242911;22;20735;-83
2022/02/03 11:21:14;;;;;;;28.60;24.92;;;7.90;99.90;;;;;;6212600;22;20024;-82
2022/02/03 11:23:48;;;;;;;29.90;24.85;;;7.90;99.90;;;;;;6240177;22;20015;-82
2022/02/03 11:28:57;;;;;;;30.75;24.02;;;7.90;99.90;;;;;;6266792;22;20431;-84
2022/02/03 11:37:09;;;;;;;27.25;23.70;;;7.90;99.90;;;;;;6244956;22;20337;-82
2022/02/03 11:43:04;;;;;;;30.48;24.77;;;7.80;99.90;;;;;;6198465;22;20038;-82
2022/02/03 11:45:46;;;;;;;30.55;24.27;;;7.80;99.90;;;;;;6267405;22;20093;-81
2022/02/03 11:59:22;;;;;;;21.65;18.58;;;7.80;99.90;;;;;;6269098;22;20525;-82
2022/02/03 12:23:41;;;;;;;21.38;18.98;;;7.90;99.90;;;;;;6268392;22;20030;-81
2022/02/03 12:26:14;;;;;;;22.50;18.00;;;7.80;99.90;;;;;;6243425;22;20019;-81
2022/02/03 12:28:51;;;;;;;18.02;16.13;;;7.80;99.90;;;;;;6219874;22;20020;-82
2022/02/03 12:39:13;;;;;;;18.27;16.35;;;7.80;99.90;;;;;;6268426;22;20081;-82
2022/02/03 12:44:41;;;;;;;;;;;7.80;99.90;;;;;;6180136;22;20027;-82
2022/02/03 12:47:08;;;;;;;16.15;14.43;;;7.70;99.90;;;;;;6238865;22;19930;-81
2022/02/03 12:49:38;;;;;;;16.85;15.05;;;7.70;99.90;;;;;;6239815;22;20020;-82
2022/02/03 12:52:25;;;;;;;18.88;15.73;;;7.70;99.90;;;;;;6239963;22;20463;-81
2022/02/03 12:54:51;;;;;;;17.48;15.15;;;7.70;99.90;;;;;;6241670;22;20091;-82
2022/02/03 12:57:32;;;;;;;17.98;16.05;;;7.80;99.90;;;;;;6242451;22;20466;-82
2022/02/03 13:00:14;;;;;;;20.55;18.05;;;7.70;99.90;;;;;;6241988;22;20095;-82
2022/02/03 13:02:40;;;;;;;22.65;17.17;;;7.70;99.90;;;;;;6241357;22;20089;-82
2022/02/03 13:05:06;;;;;;;20.38;16.65;;;7.70;99.90;;;;;;6214951;22;20520;-82
2022/02/03 13:07:32;;;;;;;19.65;17.42;;;7.70;99.90;;;;;;6243307;22;20122;-81
2022/02/03 13:10:10;;;;;;;20.00;17.08;;;7.70;99.90;;;;;;6219253;22;20058;-80
2022/02/03 13:12:48;;;;;;;21.75;18.48;;;7.70;99.90;;;;;;6220091;22;20020;-81
2022/02/03 13:15:14;;;;;;;24.70;19.77;;;7.70;99.90;;;;;;6242258;22;20018;-80
2022/02/03 13:17:52;;;;;;;20.63;16.77;;;7.60;99.90;;;;;;6242168;22;20027;-81
2022/02/03 13:20:23;;;;;;;21.73;16.23;;;7.60;99.90;;;;;;6244260;22;20186;-81
2022/02/03 13:22:57;;;;;;;20.88;15.85;;;7.60;99.90;;;;;;6219576;22;20098;-80
2022/02/03 13:25:32;;;;;;;17.48;14.15;;;7.60;99.90;;;;;;6217332;22;20015;-79
2022/02/03 13:28:04;;;;;;;20.50;16.00;;;7.60;99.90;;;;;;6193199;22;20020;-79
2022/02/03 13:31:01;;;;;;;19.35;15.73;;;7.60;99.90;;;;;;6216961;22;20024;-79
2022/02/03 13:33:41;;;;;;;19.40;15.32;;;7.60;99.90;;;;;;6217104;22;20057;-80
2022/02/03 13:36:20;;;;;;;21.52;15.63;;;7.50;99.90;;;;;;6193992;22;20079;-79
2022/02/03 13:41:31;;;;;;;20.95;15.93;;;7.50;99.90;;;;;;6241677;22;20043;-80
2022/02/03 13:44:09;;;;;;;24.80;17.08;;;7.50;99.90;;;;;;6242190;22;20055;-80
2022/02/03 13:46:38;;;;;;;19.02;16.02;;;7.50;99.90;;;;;;6217108;22;20110;-78
2022/02/03 13:49:11;;;;;;;19.23;15.70;;;7.60;99.90;;;;;;6241553;22;20333;-79
2022/02/03 13:51:42;;;;;;;17.75;15.35;;;7.60;99.90;;;;;;6240653;22;20406;-79
2022/02/03 13:54:31;;;;;;;18.50;15.40;;;7.60;99.90;;;;;;6211368;22;20016;-78
2022/02/03 14:21:43;;;;;;;19.08;15.20;;;7.60;99.90;;;;;;6198139;22;20029;-78
2022/02/03 14:27:18;;;;;;;19.58;15.80;;;7.60;99.90;;;;;;6242500;22;20034;-78
2022/02/03 14:30:01;;;;;;;20.08;16.52;;;7.60;99.90;;;;;;6222952;22;20020;-77
2022/02/03 14:32:32;;;;;;;20.27;15.82;;;7.50;99.90;;;;;;6194788;22;20019;-77
2022/02/03 14:34:58;;;;;;;21.58;16.80;;;7.60;99.90;;;;;;6217298;22;20019;-77
2022/02/03 14:37:36;;;;;;;19.17;16.10;;;7.50;99.90;;;;;;6216348;22;20020;-77
2022/02/03 14:42:38;;;;;;;20.95;15.82;;;7.50;99.90;;;;;;6241994;22;20527;-77
2022/02/03 14:45:06;;;;;;;22.52;17.25;;;7.50;99.90;;;;;;6217280;22;20034;-77
2022/02/03 14:47:33;;;;;;;24.17;16.65;;;7.50;99.90;;;;;;6217240;22;20162;-76
2022/02/03 14:50:01;;;;;;;24.48;17.83;;;7.50;99.90;;;;;;6216245;22;20390;-76
2022/02/03 14:52:46;;;;;;;23.63;16.98;;;7.50;99.90;;;;;;6212418;22;20015;-76
2022/02/03 14:58:05;;;;;;;24.92;18.90;;;7.50;99.90;;;;;;6214453;22;20444;-77
2022/02/03 15:00:33;;;;;;;22.33;18.15;;;7.40;99.90;;;;;;6186715;22;20020;-78
2022/02/03 15:02:59;;;;;;;22.50;18.48;;;7.40;99.90;;;;;;6211456;22;20688;-75
2022/02/03 15:05:37;;;;;;;30.05;18.45;;;7.50;99.90;;;;;;6239404;22;20077;-77
2022/02/03 15:08:07;;;;;;;22.77;17.90;;;7.50;99.90;;;;;;6187947;22;20020;-77
2022/02/03 15:10:45;;;;;;;28.58;20.98;;;7.40;99.90;;;;;;6209841;22;20023;-76
2022/02/03 15:15:50;;;;;;;24.48;19.08;;;7.50;99.90;;;;;;6214655;22;20039;-85
2022/02/03 15:18:17;;;;;;;22.58;18.67;;;7.50;99.90;;;;;;6234762;22;20016;-85
2022/02/03 15:20:43;;;;;;;28.50;20.58;;;7.50;99.90;;;;;;6238590;22;20028;-87
2022/02/03 15:23:09;;;;;;;26.13;20.10;;;7.50;99.90;;;;;;6241502;22;20387;-86
2022/02/03 15:25:36;;;;;;;25.70;21.10;;;7.60;99.90;;;;;;6237905;22;20023;-86
2022/02/03 15:28:02;;;;;;;24.58;20.98;;;7.50;99.90;;;;;;6266429;22;20160;-87
2022/02/03 15:30:29;;;;;;;27.10;20.35;;;7.50;99.90;;;;;;6213917;22;20152;-78
2022/02/03 15:32:55;;;;;;;23.20;18.58;;;7.50;99.90;;;;;;6213875;22;20022;-77
2022/02/03 15:35:34;;;;;;;24.33;19.13;;;7.50;99.90;;;;;;6211858;22;20348;-78
2022/02/03 15:38:02;;;;;;;24.95;19.50;;;7.50;99.90;;;;;;6220722;22;20019;-78
2022/02/03 15:40:29;;;;;;;25.42;19.98;;;7.50;99.90;;;;;;6239760;22;20358;-78
2022/02/03 15:43:09;;;;;;;27.50;20.98;;;7.50;99.90;;;;;;6268892;22;20452;-79
2022/02/03 15:45:39;;;;;;;29.23;22.83;;;7.50;99.90;;;;;;6267475;22;20055;-79
2022/02/03 15:48:45;;;;;;;29.88;23.70;;;7.50;99.90;;;;;;6267661;22;20356;-79
2022/02/03 16:17:31;;;;;;;31.50;23.77;;;7.40;99.90;;;;;;6246174;22;20019;-79
2022/02/03 16:20:08;;;;;;;29.38;22.45;;;7.40;99.90;;;;;;6220580;22;20515;-79
2022/02/03 16:26:06;;;;;;;32.88;23.10;;;7.40;99.90;;;;;;6242218;22;20141;-78
2022/02/03 16:54:35;;;;;;;38.53;26.67;;;7.20;99.90;;;;;;6266377;22;20483;-77
2022/02/03 16:57:10;;;;;;;40.33;27.65;;;7.20;99.90;;;;;;6243965;22;20019;-77
2022/02/03 16:59:43;;;;;;;39.10;25.55;;;7.20;99.90;;;;;;6267997;22;20012;-77
2022/02/03 17:02:09;;;;;;;37.60;27.13;;;7.20;99.90;;;;;;6218820;22;20445;-78
2022/02/03 17:04:35;;;;;;;36.38;25.27;;;7.20;99.90;;;;;;6216286;22;20024;-79
2022/02/03 17:07:01;;;;;;;36.85;27.10;;;7.20;99.90;;;;;;6241582;22;20026;-77
2022/02/03 17:09:27;;;;;;;36.83;28.05;;;7.30;99.90;;;;;;6242557;22;20348;-77
2022/02/03 17:11:52;;;;;;;35.38;26.80;;;7.20;99.90;;;;;;6214516;22;20157;-78
2022/02/03 17:14:18;;;;;;;35.88;26.23;;;7.20;99.90;;;;;;6241487;22;20015;-78
2022/02/03 17:16:44;;;;;;;32.20;25.10;;;7.30;99.90;;;;;;6242877;22;20019;-78
2022/02/03 17:19:10;;;;;;;35.80;25.77;;;7.20;99.90;;;;;;6217611;22;20019;-77
2022/02/03 17:21:36;;;;;;;30.95;24.40;;;7.20;99.90;;;;;;6217008;22;20020;-77
2022/02/03 17:24:02;;;;;;;34.03;25.33;;;7.20;99.90;;;;;;6221080;22;20344;-78
2022/02/03 17:29:05;;;;;;;36.92;27.42;;;7.20;99.90;;;;;;6274152;22;20038;-78
2022/02/03 17:31:51;;;;;;;38.25;27.05;;;7.20;99.90;;;;;;6246048;22;20106;-79
2022/02/03 17:52:27;;;;;;;30.13;23.60;;;7.20;99.90;;;;;;6250917;22;20029;-79
2022/02/03 18:07:49;;;;;;;32.70;26.63;;;7.20;99.90;;;;;;6229278;22;20447;-80
2022/02/03 18:10:24;;;;;;;34.45;27.75;;;7.20;99.90;;;;;;6273093;22;20053;-79
2022/02/03 18:58:35;;;;;;;46.47;29.17;;;7.20;99.90;;;;;;6249109;22;20062;-79
2022/02/03 19:14:46;;;;;;;47.80;30.50;;;7.20;99.90;;;;;;6271815;22;20347;-78
2022/02/03 20:01:47;;;;;;;49.03;33.60;;;7.30;99.90;;;;;;6245864;22;20093;-80
2022/02/03 20:06:24;;;;;;;52.45;31.15;;;7.30;99.90;;;;;;6249439;22;20141;-80
2022/02/03 20:08:59;;;;;;;49.42;30.30;;;7.40;99.90;;;;;;6270775;22;20023;-81
2022/02/03 20:11:27;;;;;;;50.13;30.33;;;7.30;99.90;;;;;;6246226;22;20015;-81
2022/02/03 20:13:56;;;;;;;46.85;30.23;;;7.40;99.90;;;;;;6221543;22;20355;-80
2022/02/03 20:16:23;;;;;;;52.15;30.88;;;7.30;99.90;;;;;;6247319;22;20019;-79
2022/02/03 20:18:49;;;;;;;45.25;30.98;;;7.30;99.90;;;;;;6272622;22;20161;-80
2022/02/03 20:21:14;;;;;;;49.05;32.08;;;7.40;99.90;;;;;;6273563;22;20021;-79
2022/02/03 20:23:45;;;;;;;49.00;32.15;;;7.40;99.90;;;;;;6243050;22;20100;-81
2022/02/03 20:26:13;;;;;;;49.45;31.77;;;7.50;99.90;;;;;;6217166;22;20027;-81
2022/02/03 20:28:39;;;;;;;48.83;31.15;;;7.40;99.90;;;;;;6244001;22;20482;-80
2022/02/03 20:31:06;;;;;;;51.80;32.47;;;7.40;99.90;;;;;;6243661;22;20055;-80
2022/02/03 20:33:32;;;;;;;49.80;32.42;;;7.30;99.90;;;;;;6241477;22;20415;-81
2022/02/03 20:35:58;;;;;;;53.38;33.30;;;7.40;99.90;;;;;;6269298;22;20091;-81
2022/02/03 20:38:24;;;;;;;50.35;31.00;;;7.40;99.90;;;;;;6246373;22;20089;-81
2022/02/03 20:40:50;;;;;;;49.97;31.05;;;7.40;99.90;;;;;;6221968;22;20448;-80
2022/02/03 20:43:16;;;;;;;51.97;33.05;;;7.40;99.90;;;;;;6243440;22;20015;-80
2022/02/03 20:45:43;;;;;;;45.63;31.90;;;7.30;99.90;;;;;;6267696;22;20016;-81
2022/02/03 20:48:10;;;;;;;48.92;32.97;;;7.40;99.90;;;;;;6220454;22;20061;-80
2022/02/03 20:50:37;;;;;;;49.58;30.83;;;7.40;99.90;;;;;;6246401;22;20023;-80
2022/02/03 20:53:04;;;;;;;46.88;31.83;;;7.40;99.90;;;;;;6246861;22;20088;-81
2022/02/03 20:55:30;;;;;;;45.72;31.23;;;7.40;99.90;;;;;;6274434;22;20020;-81
2022/02/03 20:57:58;;;;;;;48.38;33.05;;;7.40;99.90;;;;;;6274862;22;20015;-81
2022/02/03 21:00:28;;;;;;;48.63;33.13;;;7.40;99.90;;;;;;6274619;22;20529;-81
2022/02/03 21:03:00;;;;;;;45.53;32.15;;;7.40;99.90;;;;;;6224927;22;20019;-81
2022/02/03 21:05:26;;;;;;;52.80;33.67;;;7.40;99.90;;;;;;6250199;22;20019;-81
2022/02/03 21:07:53;;;;;;;51.35;33.10;;;7.30;99.90;;;;;;6272935;22;20072;-80
2022/02/03 21:10:24;;;;;;;49.15;32.30;;;7.40;99.90;;;;;;6222999;22;20026;-81
2022/02/03 21:12:55;;;;;;;49.30;33.65;;;7.40;99.90;;;;;;6247761;22;20707;-81
2022/02/03 21:15:27;;;;;;;;;;;7.40;99.90;;;;;;6249543;22;20510;-81
2022/02/03 21:18:30;;;;;;;51.45;35.42;;;7.40;99.90;;;;;;6162385;23;20288;-81
2022/02/03 21:20:57;;;;;;;43.58;34.58;;;7.40;99.90;;;;;;6175166;23;20013;-81
2022/02/03 21:23:25;;;;;;;44.25;34.25;;;7.40;99.90;;;;;;6127354;23;20013;-81
2022/02/03 21:25:54;;;;;;;46.47;34.63;;;7.40;99.90;;;;;;6126861;23;20076;-80
2022/02/03 21:28:25;;;;;;;47.97;35.53;;;7.40;99.90;;;;;;6128760;23;20331;-81
2022/02/03 21:30:52;;;;;;;50.95;37.17;;;7.40;99.90;;;;;;6234731;22;20347;-81
2022/02/03 21:33:24;;;;;;;49.35;37.70;;;7.40;99.90;;;;;;6249004;22;20032;-81
2022/02/03 21:35:51;;;;;;;52.95;38.33;;;7.50;99.90;;;;;;6249316;22;20102;-82
2022/02/03 21:38:18;;;;;;;51.17;38.90;;;7.40;99.90;;;;;;6249070;22;20176;-80
2022/02/03 21:40:44;;;;;;;54.35;41.55;;;7.40;99.90;;;;;;6224332;22;20021;-81
2022/02/03 21:43:10;;;;;;;58.40;41.92;;;7.40;99.90;;;;;;6248970;22;20019;-81
2022/02/03 21:45:36;;;;;;;55.97;42.30;;;7.40;99.90;;;;;;6221172;22;20077;-81
2022/02/03 21:48:03;;;;;;;63.05;45.58;;;7.40;99.90;;;;;;6245584;22;20051;-81
2022/02/03 21:50:35;;;;;;;62.20;43.78;;;7.40;99.90;;;;;;6248399;22;20050;-81
2022/02/03 21:53:06;;;;;;;62.25;44.72;;;7.40;99.90;;;;;;6272381;22;20055;-81
2022/02/03 21:55:35;;;;;;;61.72;44.15;;;7.40;99.90;;;;;;6222913;22;20015;-80
2022/02/03 21:58:01;;;;;;;58.53;44.03;;;7.40;99.90;;;;;;6221974;22;20043;-80
2022/02/03 22:00:28;;;;;;;61.33;45.38;;;7.40;99.90;;;;;;6222556;22;20026;-81
2022/02/03 22:02:53;;;;;;;58.58;43.97;;;7.40;99.90;;;;;;6221253;22;20011;-81
2022/02/03 22:05:19;;;;;;;58.03;43.75;;;7.40;99.90;;;;;;6222531;22;20097;-81
2022/02/03 22:07:46;;;;;;;60.58;45.97;;;7.40;99.90;;;;;;6246986;22;20070;-81
2022/02/03 22:10:18;;;;;;;57.97;44.05;;;7.30;99.90;;;;;;6247533;22;20026;-81
2022/02/03 22:12:45;;;;;;;55.10;41.58;;;7.30;99.90;;;;;;6247762;22;20030;-80
2022/02/03 22:15:11;;;;;;;58.33;43.20;;;7.40;99.90;;;;;;6221290;22;20026;-81
2022/02/03 22:17:39;;;;;;;59.70;44.00;;;7.30;99.90;;;;;;6220004;22;20030;-80
2022/02/03 22:20:09;;;;;;;65.88;47.10;;;7.30;99.90;;;;;;6221464;22;20046;-81
2022/02/03 22:22:48;;;;;;;64.35;44.83;;;7.30;99.90;;;;;;6273309;22;20023;-81
2022/02/03 22:38:57;;;;;;;59.80;45.15;;;7.20;99.90;;;;;;6252370;22;20056;-81
2022/02/03 22:47:18;;;;;;;60.50;44.13;;;7.20;99.90;;;;;;6251234;22;20030;-81
2022/02/03 22:49:42;;;;;;;57.90;42.78;;;7.20;99.90;;;;;;6272356;22;20533;-81
2022/02/03 22:52:09;;;;;;;60.78;44.45;;;7.20;99.90;;;;;;6248514;22;20011;-81
2022/02/03 22:54:40;;;;;;;62.97;46.03;;;7.10;99.90;;;;;;6248902;22;20015;-81
2022/02/03 22:57:08;;;;;;;58.17;43.78;;;7.10;99.90;;;;;;6224249;22;20026;-81
2022/02/03 23:02:20;;;;;;;57.08;41.50;;;7.10;99.90;;;;;;6273887;22;20102;-81
2022/02/03 23:04:46;;;;;;;58.10;42.53;;;7.10;99.90;;;;;;6248153;22;20494;-82
2022/02/03 23:07:18;;;;;;;57.97;42.38;;;7.00;99.90;;;;;;6248878;22;20023;-81
2022/02/03 23:12:41;;;;;;;60.90;43.17;;;6.90;99.90;;;;;;6247051;22;20031;-80
2022/02/03 23:17:53;;;;;;;59.85;41.75;;;6.80;99.90;;;;;;6251301;22;20307;-83
2022/02/03 23:20:23;;;;;;;57.40;40.53;;;6.80;99.90;;;;;;6272853;22;20026;-81
2022/02/03 23:22:51;;;;;;;62.90;43.45;;;6.80;99.90;;;;;;6224888;22;20023;-81
2022/02/03 23:25:19;;;;;;;59.92;42.75;;;6.80;99.90;;;;;;6222508;22;20016;-82
2022/02/03 23:30:19;;;;;;;59.25;42.25;;;6.80;99.90;;;;;;6249441;22;20019;-82
2022/02/03 23:32:46;;;;;;;59.90;42.15;;;6.80;99.90;;;;;;6249810;22;20019;-81
2022/02/03 23:35:21;;;;;;;59.03;41.42;;;6.90;99.90;;;;;;6249077;22;20389;-81
2022/02/03 23:38:03;;;;;;;57.97;40.83;;;6.80;99.90;;;;;;6225323;22;20015;-81
